JST89 WADD-YWLM
Flight info
| Callsign | JST89 |
|---|---|
| Flight time | N/A |
| Altitude | 33000 |
| Route | ATMAP DCT 13S120E DCT AVGEM DCT DOPUK DCT 20S130E DCT GEKKO DCT 23S135E/N0438F350 25S140E DCT DAPPA DCT OTLAM Y161 OVNOM DCT SANAD/N0344F190 V779 LAXUM |
| Aircraft | A21N/M-SDE2E3FGHIJ1RWXY/LB1 |
Departure
| Time | N/A |
|---|---|
| Airport | Denpasar I Gusti Ngurah Rai International Airport (WADD) |
Arrival
| Time | 2026-05-04 20:10 |
|---|---|
| Airport | Newcastle Airport (YWLM) |
| Time | Latitude | Longitude | Altitude | Speed | Heading |
|---|---|---|---|---|---|
| 2026-05-04 19:45 | -31.19072 | 151.26125 | 33151 ft | 524 kts | 154° |
| 2026-05-04 19:46 | -31.22113 | 151.28467 | 33149 ft | 523 kts | 154° |
| 2026-05-04 19:46 | -31.28121 | 151.33104 | 33132 ft | 518 kts | 154° |
| 2026-05-04 19:47 | -31.34141 | 151.37748 | 33149 ft | 524 kts | 154° |
| 2026-05-04 19:47 | -31.40462 | 151.41721 | 33145 ft | 505 kts | 171° |
| 2026-05-04 19:48 | -31.47157 | 151.43808 | 33108 ft | 491 kts | 177° |
| 2026-05-04 19:48 | -31.50370 | 151.44690 | 32704 ft | 484 kts | 177° |
| 2026-05-04 19:48 | -31.53630 | 151.45602 | 32140 ft | 481 kts | 176° |
| 2026-05-04 19:48 | -31.56643 | 151.46462 | 31588 ft | 479 kts | 175° |
| 2026-05-04 19:49 | -31.59876 | 151.47398 | 30994 ft | 477 kts | 175° |
| 2026-05-04 19:49 | -31.63087 | 151.48334 | 30447 ft | 473 kts | 174° |
| 2026-05-04 19:49 | -31.66251 | 151.49255 | 29949 ft | 467 kts | 174° |
| 2026-05-04 19:49 | -31.69388 | 151.50167 | 29375 ft | 462 kts | 174° |
| 2026-05-04 19:50 | -31.72506 | 151.51072 | 28785 ft | 459 kts | 174° |
| 2026-05-04 19:50 | -31.75594 | 151.51969 | 28224 ft | 455 kts | 173° |
| 2026-05-04 19:50 | -31.78655 | 151.52864 | 27685 ft | 451 kts | 173° |
| 2026-05-04 19:50 | -31.81691 | 151.53757 | 27192 ft | 446 kts | 173° |
| 2026-05-04 19:51 | -31.84685 | 151.54652 | 26653 ft | 444 kts | 173° |
| 2026-05-04 19:51 | -31.87676 | 151.55548 | 26109 ft | 441 kts | 173° |
| 2026-05-04 19:51 | -31.90629 | 151.56433 | 25626 ft | 437 kts | 172° |
| 2026-05-04 19:51 | -31.93563 | 151.57313 | 25120 ft | 433 kts | 172° |
| 2026-05-04 19:52 | -31.96474 | 151.58185 | 24609 ft | 430 kts | 172° |
| 2026-05-04 19:52 | -31.99360 | 151.59051 | 24179 ft | 426 kts | 172° |
| 2026-05-04 19:52 | -32.02223 | 151.59908 | 23703 ft | 423 kts | 172° |
| 2026-05-04 19:52 | -32.05063 | 151.60763 | 23184 ft | 420 kts | 172° |
| 2026-05-04 19:53 | -32.07873 | 151.61606 | 22723 ft | 414 kts | 172° |
| 2026-05-04 19:53 | -32.10657 | 151.62444 | 22228 ft | 411 kts | 171° |
| 2026-05-04 19:53 | -32.13405 | 151.63268 | 21795 ft | 406 kts | 171° |
| 2026-05-04 19:53 | -32.16138 | 151.64087 | 21266 ft | 404 kts | 171° |
| 2026-05-04 19:54 | -32.18846 | 151.64901 | 20833 ft | 400 kts | 171° |
| 2026-05-04 19:54 | -32.21496 | 151.65698 | 20349 ft | 396 kts | 171° |
| 2026-05-04 19:54 | -32.24158 | 151.66500 | 19917 ft | 392 kts | 171° |
| 2026-05-04 19:54 | -32.26793 | 151.67293 | 19434 ft | 390 kts | 170° |
| 2026-05-04 19:55 | -32.29408 | 151.68081 | 18983 ft | 387 kts | 170° |
| 2026-05-04 19:55 | -32.32009 | 151.68865 | 18563 ft | 383 kts | 170° |
| 2026-05-04 19:55 | -32.34581 | 151.69638 | 18073 ft | 381 kts | 170° |
| 2026-05-04 19:55 | -32.37145 | 151.70396 | 17596 ft | 377 kts | 170° |
| 2026-05-04 19:56 | -32.39677 | 151.71141 | 17131 ft | 374 kts | 170° |
| 2026-05-04 19:56 | -32.42192 | 151.71890 | 16625 ft | 373 kts | 168° |
| 2026-05-04 19:56 | -32.44584 | 151.73065 | 16160 ft | 375 kts | 150° |
| 2026-05-04 19:56 | -32.46574 | 151.75073 | 15686 ft | 376 kts | 134° |
| 2026-05-04 19:57 | -32.48316 | 151.77370 | 15255 ft | 373 kts | 132° |
| 2026-05-04 19:57 | -32.50036 | 151.79659 | 14830 ft | 370 kts | 133° |
| 2026-05-04 19:57 | -32.51767 | 151.81902 | 14410 ft | 367 kts | 134° |
| 2026-05-04 19:57 | -32.53499 | 151.84104 | 14008 ft | 364 kts | 134° |
| 2026-05-04 19:58 | -32.55228 | 151.86281 | 13578 ft | 361 kts | 134° |
| 2026-05-04 19:58 | -32.56880 | 151.88506 | 13124 ft | 358 kts | 125° |
| 2026-05-04 19:58 | -32.58082 | 151.91076 | 12661 ft | 356 kts | 115° |
| 2026-05-04 19:58 | -32.59133 | 151.93712 | 12243 ft | 352 kts | 114° |
| 2026-05-04 19:59 | -32.60166 | 151.96322 | 11824 ft | 349 kts | 115° |
| 2026-05-04 19:59 | -32.61204 | 151.98920 | 11410 ft | 346 kts | 115° |
| 2026-05-04 19:59 | -32.62238 | 152.01488 | 10989 ft | 344 kts | 115° |
| 2026-05-04 19:59 | -32.63272 | 152.04042 | 10572 ft | 342 kts | 115° |
| 2026-05-04 20:00 | -32.64297 | 152.06570 | 10228 ft | 338 kts | 115° |
| 2026-05-04 20:00 | -32.65325 | 152.09065 | 9866 ft | 335 kts | 118° |
| 2026-05-04 20:00 | -32.66733 | 152.11196 | 9618 ft | 323 kts | 143° |
| 2026-05-04 20:00 | -32.68665 | 152.12375 | 9368 ft | 308 kts | 170° |
| 2026-05-04 20:01 | -32.70753 | 152.12539 | 8929 ft | 300 kts | 186° |
| 2026-05-04 20:01 | -32.72835 | 152.12423 | 8313 ft | 298 kts | 187° |
| 2026-05-04 20:01 | -32.74900 | 152.12279 | 7844 ft | 295 kts | 187° |
| 2026-05-04 20:01 | -32.76907 | 152.12212 | 7446 ft | 291 kts | 184° |
| 2026-05-04 20:02 | -32.78935 | 152.12257 | 6971 ft | 290 kts | 182° |
| 2026-05-04 20:02 | -32.80917 | 152.12316 | 6716 ft | 281 kts | 182° |
| 2026-05-04 20:02 | -32.82838 | 152.12372 | 6571 ft | 270 kts | 183° |
| 2026-05-04 20:02 | -32.84684 | 152.12420 | 6337 ft | 262 kts | 183° |
| 2026-05-04 20:03 | -32.86496 | 152.12464 | 5918 ft | 259 kts | 184° |
| 2026-05-04 20:03 | -32.88285 | 152.12489 | 5471 ft | 256 kts | 187° |
| 2026-05-04 20:03 | -32.89965 | 152.12016 | 4991 ft | 243 kts | 214° |
| 2026-05-04 20:03 | -32.91301 | 152.10845 | 4543 ft | 237 kts | 225° |
| 2026-05-04 20:04 | -32.92529 | 152.09551 | 4094 ft | 235 kts | 225° |
| 2026-05-04 20:04 | -32.93718 | 152.08274 | 3770 ft | 225 kts | 230° |
| 2026-05-04 20:04 | -32.94523 | 152.06772 | 3486 ft | 208 kts | 254° |
| 2026-05-04 20:04 | -32.94644 | 152.05157 | 3350 ft | 187 kts | 277° |
| 2026-05-04 20:05 | -32.94154 | 152.03776 | 3230 ft | 183 kts | 302° |
| 2026-05-04 20:05 | -32.93610 | 152.02999 | 3191 ft | 184 kts | 308° |
| 2026-05-04 20:05 | -32.92760 | 152.01862 | 3185 ft | 184 kts | 308° |
| 2026-05-04 20:05 | -32.91923 | 152.00711 | 3195 ft | 185 kts | 307° |
| 2026-05-04 20:06 | -32.91087 | 151.99545 | 3199 ft | 185 kts | 307° |
| 2026-05-04 20:06 | -32.90254 | 151.98379 | 3083 ft | 184 kts | 307° |
| 2026-05-04 20:06 | -32.89425 | 151.97220 | 2817 ft | 183 kts | 306° |
| 2026-05-04 20:06 | -32.88605 | 151.96059 | 2527 ft | 184 kts | 306° |
| 2026-05-04 20:07 | -32.87780 | 151.94906 | 2275 ft | 182 kts | 306° |
| 2026-05-04 20:07 | -32.86968 | 151.93765 | 2039 ft | 177 kts | 306° |
| 2026-05-04 20:07 | -32.86202 | 151.92681 | 1789 ft | 166 kts | 306° |
| 2026-05-04 20:07 | -32.85476 | 151.91682 | 1579 ft | 153 kts | 307° |
| 2026-05-04 20:08 | -32.84804 | 151.90755 | 1383 ft | 138 kts | 306° |
| 2026-05-04 20:08 | -32.84195 | 151.89907 | 1174 ft | 134 kts | 306° |
| 2026-05-04 20:08 | -32.83597 | 151.89058 | 1004 ft | 134 kts | 306° |
| 2026-05-04 20:08 | -32.82986 | 151.88218 | 815 ft | 134 kts | 307° |
| 2026-05-04 20:09 | -32.82389 | 151.87385 | 627 ft | 133 kts | 308° |
| 2026-05-04 20:09 | -32.81787 | 151.86543 | 474 ft | 133 kts | 308° |
| 2026-05-04 20:09 | -32.81192 | 151.85710 | 272 ft | 130 kts | 309° |
| 2026-05-04 20:09 | -32.80592 | 151.84879 | 110 ft | 133 kts | 308° |
| 2026-05-04 20:10 | -32.80011 | 151.84068 | 35 ft | 124 kts | 309° |
| 2026-05-04 20:10 | -32.79599 | 151.83490 | 35 ft | 56 kts | 310° |
| 2026-05-04 20:10 | -32.79401 | 151.83221 | 37 ft | 41 kts | 311° |
| 2026-05-04 20:10 | -32.79298 | 151.83081 | 39 ft | 22 kts | 311° |
| 2026-05-04 20:11 | -32.79169 | 151.83047 | 38 ft | 23 kts | 41° |
| 2026-05-04 20:11 | -32.79185 | 151.83207 | 39 ft | 24 kts | 131° |
| 2026-05-04 20:11 | -32.79285 | 151.83368 | 37 ft | 25 kts | 146° |
| 2026-05-04 20:11 | -32.79410 | 151.83521 | 37 ft | 26 kts | 130° |
| 2026-05-04 20:12 | -32.79531 | 151.83691 | 36 ft | 28 kts | 130° |
| 2026-05-04 20:12 | -32.79658 | 151.83868 | 36 ft | 29 kts | 130° |
| 2026-05-04 20:12 | -32.79750 | 151.83985 | 35 ft | 13 kts | 162° |
| 2026-05-04 20:12 | -32.79821 | 151.83920 | 35 ft | 15 kts | 241° |
| 2026-05-04 20:13 | -32.79907 | 151.83857 | 35 ft | 16 kts | 192° |
| 2026-05-04 20:13 | -32.80022 | 151.83836 | 35 ft | 17 kts | 188° |
| 2026-05-04 20:13 | -32.80147 | 151.83828 | 34 ft | 19 kts | 163° |
| 2026-05-04 20:13 | -32.80245 | 151.83932 | 34 ft | 20 kts | 134° |
| 2026-05-04 20:14 | -32.80340 | 151.84062 | 33 ft | 22 kts | 131° |
| 2026-05-04 20:14 | -32.80423 | 151.84179 | 32 ft | 15 kts | 130° |
| 2026-05-04 20:14 | -32.80442 | 151.84207 | 32 ft | 5 kts | 130° |
| 2026-05-04 20:14 | -32.80486 | 151.84222 | 32 ft | 8 kts | 201° |
| 2026-05-04 20:15 | -32.80510 | 151.84200 | 32 ft | 0 kts | 226° |
| 2026-05-04 20:15 | -32.80510 | 151.84199 | 32 ft | 0 kts | 224° |